Weather at Airborn Paraflite Ultralightport

Public forecast

Using degrees Fahrenheit for public forecast. Weather courtesy of forecast.io.

Closest aviation weather report (METAR) to Airborn Paraflite Ultralightport

Closest report is Gratiot Community Airport, 2.1 nm (3.8 km) WNW. Retrieved 2020/09/29 12:34 UTC (0 seconds ago):

KAMN 291234Z AUTO 22003KT 10SM SCT023 OVC065 11/10 A2983 RMK AO2

Closest aviation forecast (TAF) to Airborn Paraflite Ultralightport

Closest forecast is MBS International Airport, 28.2 nm (52.2 km) ENE. Retrieved 2020/09/29 12:45 UTC (0 seconds ago):

TAF KMBS 291142Z 2912/3012 21008KT P6SM SCT020 BKN060 FM291400 24012KT P6SM OVC040 FM291900 24012KT P6SM OVC045 TEMPO 2920/2923 4SM SHRA OVC030 FM300800 23011KT P6SM BKN040 OVC100 PROB30 3008/3012 4SM SHRA OVC030